createdAt,value
2022-08-16T17:21:50.193Z,72.1
2022-08-16T17:26:48.759Z,77.3
2022-08-16T17:31:44.570Z,77.6
2022-08-16T17:36:45.270Z,79.5
2022-08-16T17:41:40.138Z,82.9
2022-08-16T17:46:41.959Z,84.3
2022-08-16T17:51:36.027Z,85.9
2022-08-16T17:56:34.176Z,88.6
2022-08-16T18:01:32.967Z,91
2022-08-16T18:06:31.486Z,91.2
2022-08-16T18:11:29.861Z,89.4
2022-08-16T18:16:27.933Z,90.1
2022-08-16T18:21:25.750Z,91.7
2022-08-16T18:26:23.755Z,96.1
2022-08-16T18:31:21.950Z,94.1
2022-08-16T18:36:21.592Z,95.3
2022-08-16T18:41:18.220Z,97.1
2022-08-16T18:46:16.702Z,92.8
2022-08-16T18:51:20.374Z,95.7
2022-08-16T18:56:13.493Z,94.6
2022-08-16T19:01:12.758Z,95
2022-08-16T19:06:11.358Z,96.7
2022-08-16T19:11:08.913Z,97.4
2022-08-16T19:16:07.304Z,96.9
2022-08-16T19:21:05.536Z,96.3
2022-08-16T19:26:04.964Z,97.9
2022-08-16T19:31:01.883Z,97.3
2022-08-16T19:36:00.086Z,97.6
2022-08-16T19:40:58.334Z,96.2
2022-08-16T19:45:56.255Z,97.3
2022-08-16T19:50:54.186Z,96.8
2022-08-16T19:55:52.162Z,95.1
2022-08-16T20:00:51.049Z,94.7
2022-08-16T20:05:48.506Z,98.1
2022-08-16T20:10:46.738Z,96.1
2022-08-16T20:15:44.714Z,97.8
2022-08-16T20:20:43.011Z,97.9
2022-08-16T20:25:42.040Z,96.3
2022-08-16T20:30:39.957Z,97.2
2022-08-16T20:35:38.119Z,95.8
2022-08-16T20:40:36.155Z,99.5
2022-08-16T20:45:34.294Z,100
2022-08-16T20:50:32.429Z,100
2022-08-16T20:55:30.612Z,100
2022-08-16T21:00:28.526Z,100
2022-08-16T21:05:27.842Z,100
2022-08-16T21:10:25.202Z,100
2022-08-16T21:15:23.698Z,100
2022-08-16T21:20:22.041Z,100
2022-08-16T21:25:23.160Z,100
2022-08-16T21:30:18.922Z,100
2022-08-16T21:35:17.331Z,100
2022-08-16T21:40:15.885Z,100
2022-08-16T21:45:14.048Z,100
2022-08-16T21:50:12.527Z,100
2022-08-16T21:55:10.988Z,100
2022-08-16T22:00:09.337Z,100
2022-08-16T22:05:07.690Z,100
2022-08-16T22:10:05.936Z,100
2022-08-16T22:15:04.145Z,100
2022-08-16T22:20:01.930Z,100
2022-08-16T22:25:00.266Z,100
2022-08-16T22:29:58.354Z,100
2022-08-16T22:34:56.493Z,100
2022-08-16T22:39:54.532Z,100
2022-08-16T22:44:53.043Z,100
2022-08-16T22:49:50.979Z,100
2022-08-16T22:54:49.233Z,100
2022-08-16T22:59:47.471Z,100
2022-08-16T23:04:45.695Z,100
2022-08-16T23:09:44.091Z,100
2022-08-16T23:14:42.109Z,100
2022-08-16T23:19:40.128Z,100
2022-08-16T23:24:45.882Z,100
2022-08-16T23:29:36.895Z,100
2022-08-16T23:34:35.028Z,100
2022-08-16T23:39:33.175Z,100
2022-08-16T23:44:42.562Z,100
2022-08-16T23:49:45.257Z,100
2022-08-16T23:54:27.636Z,100
2022-08-16T23:59:25.727Z,100
